KRMG/RMG METAR and TAF weather

Enter ICAO airport designator
Station Type Date Time Source
KRMG METAR 2019/10/23 12:53 UTC NOAA

KRMG 231253Z AUTO 00000KT 10SM CLR 07/05 A3018 RMK AO2 SLP216 T00720050


Station Type Date Time Source
KRMG Decoded METAR 2019/10/23 12:53 UTC NOAA

ROME R. B. RUSSELL AIRPORT, GA, United States (KRMG) 34-21N 085-10W 193M
Oct 23, 2019 - 08:53 AM EDT / 2019.10.23 1253 UTC
Wind: Calm:0
Visibility: 10 mile(s):0
Sky conditions: clear
Temperature: 45.0 F (7.2 C)
Dew Point: 41.0 F (5.0 C)
Relative Humidity: 85%
Pressure (altimeter): 30.18 in. Hg (1022 hPa)
ob: KRMG 231253Z AUTO 00000KT 10SM CLR 07/05 A3018 RMK AO2 SLP216 T00720050
cycle: 13

Station Type Date Time Source
KRMG TAF UTC NOAA

Error!

Example: see airport list